createdAt,value
2018-06-25T00:01:57.544Z,15.00
2018-06-25T00:04:25.995Z,14.90
2018-06-25T00:06:54.545Z,14.80
2018-06-25T00:09:23.133Z,14.80
2018-06-25T00:11:51.677Z,14.80
2018-06-25T00:14:20.134Z,14.80
2018-06-25T00:16:48.599Z,14.80
2018-06-25T00:19:17.048Z,14.70
2018-06-25T00:21:45.542Z,14.80
2018-06-25T00:24:13.983Z,14.70
2018-06-25T00:26:42.695Z,14.80
2018-06-25T00:29:12.324Z,14.80
2018-06-25T00:31:40.765Z,14.70
2018-06-25T00:34:09.210Z,14.70
2018-06-25T00:36:37.810Z,14.70
2018-06-25T00:39:08.960Z,14.60
2018-06-25T00:41:38.266Z,14.60
2018-06-25T00:44:07.048Z,14.70
2018-06-25T00:46:35.848Z,14.70
2018-06-25T00:49:04.812Z,14.70
2018-06-25T00:51:33.287Z,14.70
2018-06-25T00:54:01.725Z,14.60
2018-06-25T00:56:30.229Z,14.70
2018-06-25T00:59:10.020Z,14.60
2018-06-25T01:01:38.631Z,14.60
2018-06-25T01:04:07.374Z,14.60
2018-06-25T01:06:35.852Z,14.60
2018-06-25T01:09:06.694Z,14.50
2018-06-25T01:11:35.195Z,14.50
2018-06-25T01:14:03.897Z,14.50
2018-06-25T01:16:32.371Z,14.50
2018-06-25T01:21:29.006Z,14.50
2018-06-25T01:26:25.601Z,14.50
2018-06-25T01:28:54.096Z,14.50
2018-06-25T01:31:22.541Z,14.50
2018-06-25T01:33:50.980Z,14.60
2018-06-25T01:36:19.456Z,14.50
2018-06-25T01:38:47.912Z,14.50
2018-06-25T01:41:16.382Z,14.50
2018-06-25T01:43:44.852Z,14.50
2018-06-25T01:46:13.273Z,14.50
2018-06-25T01:48:41.687Z,14.60
2018-06-25T01:51:10.145Z,14.60
2018-06-25T01:53:38.577Z,14.50
2018-06-25T01:56:07.080Z,14.60
2018-06-25T01:58:35.682Z,14.60
2018-06-25T02:01:04.388Z,14.60
2018-06-25T02:03:33.261Z,14.60
2018-06-25T02:06:01.719Z,14.60
2018-06-25T02:08:30.151Z,14.60
2018-06-25T02:10:58.843Z,14.60
2018-06-25T02:13:27.343Z,14.60
2018-06-25T02:15:55.786Z,14.60
2018-06-25T02:18:24.269Z,14.70
2018-06-25T02:23:21.332Z,14.70
2018-06-25T02:25:50.920Z,14.70
2018-06-25T02:28:19.365Z,14.60
2018-06-25T02:30:48.729Z,14.50
2018-06-25T02:33:17.211Z,14.40
2018-06-25T02:35:45.642Z,14.40
2018-06-25T02:38:14.109Z,14.40
2018-06-25T02:40:42.570Z,14.50
2018-06-25T02:43:11.087Z,14.40
2018-06-25T02:45:39.543Z,14.50
2018-06-25T02:48:08.061Z,14.40
2018-06-25T02:50:36.536Z,14.40
2018-06-25T02:53:05.232Z,14.20
2018-06-25T02:55:33.676Z,14.10
2018-06-25T02:58:02.262Z,14.10
2018-06-25T03:00:30.726Z,14.00
2018-06-25T03:02:59.367Z,14.00
2018-06-25T03:05:27.837Z,14.00
2018-06-25T03:07:56.292Z,14.00
2018-06-25T03:10:24.800Z,14.00
2018-06-25T03:12:53.300Z,14.10
2018-06-25T03:15:21.764Z,14.00
2018-06-25T03:17:50.202Z,14.00
2018-06-25T03:20:18.738Z,14.00
2018-06-25T03:22:47.216Z,14.00
2018-06-25T03:25:15.862Z,14.00
2018-06-25T03:27:44.354Z,14.00
2018-06-25T03:30:12.900Z,14.10
2018-06-25T03:32:41.497Z,14.10
2018-06-25T03:35:09.997Z,14.10
2018-06-25T03:37:38.498Z,14.10
2018-06-25T03:40:06.943Z,14.10
2018-06-25T03:42:35.419Z,14.20
2018-06-25T03:45:04.012Z,14.10
2018-06-25T03:47:32.502Z,14.10
2018-06-25T03:50:00.995Z,14.20
2018-06-25T03:52:29.503Z,14.20
2018-06-25T03:54:58.079Z,14.20
2018-06-25T03:57:26.528Z,14.20
2018-06-25T03:59:54.987Z,14.20
2018-06-25T04:02:23.473Z,14.30
2018-06-25T04:04:52.168Z,14.30
2018-06-25T04:07:20.649Z,14.30
2018-06-25T04:09:49.115Z,14.30
2018-06-25T04:12:17.543Z,14.30
2018-06-25T04:14:46.113Z,14.40
2018-06-25T04:17:14.627Z,14.40
2018-06-25T04:19:43.074Z,14.40
2018-06-25T04:22:11.540Z,14.40
2018-06-25T04:24:39.970Z,14.50
2018-06-25T04:27:08.478Z,14.50
2018-06-25T04:29:36.904Z,14.50
2018-06-25T04:32:05.365Z,14.50
2018-06-25T04:34:33.868Z,14.50
2018-06-25T04:37:02.277Z,14.50
2018-06-25T04:39:31.076Z,14.50
2018-06-25T04:41:59.534Z,14.60
2018-06-25T04:44:27.998Z,14.60
2018-06-25T04:46:56.476Z,14.70
2018-06-25T04:49:24.975Z,14.60
2018-06-25T04:51:53.786Z,14.60
2018-06-25T04:54:22.244Z,14.50
2018-06-25T04:56:50.861Z,14.50
2018-06-25T04:59:19.466Z,14.60
2018-06-25T05:01:47.956Z,14.60
2018-06-25T05:04:16.515Z,14.60
2018-06-25T05:06:47.309Z,14.60
2018-06-25T05:09:15.789Z,14.80
2018-06-25T05:11:44.305Z,14.70
2018-06-25T05:14:14.347Z,14.80
2018-06-25T05:16:42.875Z,14.80
2018-06-25T05:19:11.316Z,14.80
2018-06-25T05:21:39.886Z,14.90
2018-06-25T05:24:08.354Z,14.90
2018-06-25T05:26:36.972Z,15.00
2018-06-25T05:29:05.663Z,15.00
2018-06-25T05:31:34.069Z,15.10
2018-06-25T05:34:02.508Z,15.20
2018-06-25T05:36:30.952Z,15.30
2018-06-25T05:39:00.324Z,15.30
2018-06-25T05:41:29.045Z,15.10
2018-06-25T05:43:57.619Z,15.10
2018-06-25T05:46:26.058Z,15.00
2018-06-25T05:48:55.294Z,14.90
2018-06-25T05:51:23.789Z,14.80
2018-06-25T05:56:20.393Z,14.60
2018-06-25T05:58:50.208Z,14.60
2018-06-25T06:01:18.920Z,14.60
2018-06-25T06:03:47.595Z,14.50
2018-06-25T06:06:16.199Z,14.50
2018-06-25T06:08:45.034Z,14.60
2018-06-25T06:11:13.581Z,14.70
2018-06-25T06:13:42.360Z,14.60
2018-06-25T06:16:10.797Z,14.60
2018-06-25T06:18:39.381Z,14.60
2018-06-25T06:21:07.844Z,14.60
2018-06-25T06:23:36.437Z,14.60
2018-06-25T06:26:04.912Z,14.50
2018-06-25T06:28:33.549Z,14.60
2018-06-25T06:31:02.097Z,14.70
2018-06-25T06:33:30.828Z,14.90
2018-06-25T06:35:59.418Z,14.80
2018-06-25T06:38:27.908Z,14.70
2018-06-25T06:40:56.344Z,14.70
2018-06-25T06:43:25.648Z,14.70
2018-06-25T06:45:54.143Z,14.60
2018-06-25T06:48:22.627Z,14.70
2018-06-25T06:50:54.229Z,14.80
2018-06-25T06:53:22.733Z,14.90
2018-06-25T06:55:51.181Z,14.90
2018-06-25T06:58:19.667Z,14.90
2018-06-25T07:00:48.144Z,14.90
2018-06-25T07:03:16.676Z,15.00
2018-06-25T07:05:45.152Z,15.00
2018-06-25T07:08:13.648Z,15.00
2018-06-25T07:10:42.221Z,15.10
2018-06-25T07:13:10.705Z,15.10
2018-06-25T07:15:39.215Z,15.10
2018-06-25T07:18:08.052Z,15.20
2018-06-25T07:20:36.604Z,15.50
2018-06-25T07:23:05.300Z,15.60
2018-06-25T07:25:33.732Z,15.80
2018-06-25T07:30:30.453Z,15.90
2018-06-25T07:32:59.019Z,16.00
2018-06-25T07:35:27.502Z,16.30
2018-06-25T07:37:55.945Z,16.50
2018-06-25T07:40:24.472Z,16.60
2018-06-25T07:42:52.922Z,16.80
2018-06-25T07:45:21.493Z,16.80
2018-06-25T07:47:49.941Z,17.00
2018-06-25T07:50:18.369Z,16.90
2018-06-25T07:52:46.913Z,17.30
2018-06-25T07:57:43.544Z,17.40
2018-06-25T08:00:12.335Z,17.20
2018-06-25T08:02:41.013Z,17.10
2018-06-25T08:05:09.907Z,17.30
2018-06-25T08:07:38.617Z,17.00
2018-06-25T08:10:07.289Z,16.90
2018-06-25T08:12:35.768Z,17.00
2018-06-25T08:17:33.170Z,17.00
2018-06-25T08:20:01.719Z,17.10
2018-06-25T08:22:30.176Z,17.10
2018-06-25T08:24:58.865Z,17.10
2018-06-25T08:27:27.305Z,17.10
2018-06-25T08:29:55.921Z,17.30
2018-06-25T08:32:24.420Z,17.10
2018-06-25T08:34:53.016Z,17.10
2018-06-25T08:37:21.502Z,17.20
2018-06-25T08:39:49.976Z,16.80
2018-06-25T08:42:18.507Z,16.80
2018-06-25T08:44:46.972Z,17.00
2018-06-25T08:47:16.555Z,17.40
2018-06-25T08:49:45.037Z,17.20
2018-06-25T08:52:13.512Z,17.20
2018-06-25T08:54:42.019Z,17.20
2018-06-25T08:57:10.683Z,16.90
2018-06-25T08:59:39.153Z,16.90
2018-06-25T09:02:07.721Z,16.70
2018-06-25T09:04:36.253Z,16.70
2018-06-25T09:07:04.936Z,16.80
2018-06-25T09:09:33.571Z,16.80
2018-06-25T09:12:02.174Z,17.00
2018-06-25T09:14:30.966Z,17.30
2018-06-25T09:16:59.461Z,17.50
2018-06-25T09:19:27.911Z,17.40
2018-06-25T09:21:56.369Z,17.20
2018-06-25T09:24:24.854Z,17.10
2018-06-25T09:26:53.384Z,17.40
2018-06-25T09:29:21.880Z,17.50
2018-06-25T09:31:50.346Z,17.70
2018-06-25T09:34:24.181Z,17.60
2018-06-25T09:36:52.628Z,17.40
2018-06-25T09:39:21.098Z,17.40
2018-06-25T09:41:49.684Z,17.70
2018-06-25T09:44:18.048Z,18.00
2018-06-25T09:46:46.589Z,18.20
2018-06-25T09:49:15.185Z,18.30
2018-06-25T09:51:43.674Z,18.50
2018-06-25T09:56:40.292Z,18.80
2018-06-25T09:59:08.799Z,18.80
2018-06-25T10:01:37.321Z,18.90
2018-06-25T10:04:05.919Z,18.70
2018-06-25T10:06:34.363Z,18.30
2018-06-25T10:09:03.071Z,17.90
2018-06-25T10:11:31.524Z,17.50
2018-06-25T10:13:59.979Z,17.50
2018-06-25T10:16:28.719Z,17.70
2018-06-25T10:18:57.255Z,17.90
2018-06-25T10:21:25.810Z,18.50
2018-06-25T10:23:54.283Z,18.70
2018-06-25T10:26:22.748Z,18.90
2018-06-25T10:28:51.349Z,18.90
2018-06-25T10:31:20.018Z,19.50
2018-06-25T10:33:48.507Z,20.00
2018-06-25T10:36:16.992Z,20.30
2018-06-25T10:38:45.473Z,20.50
2018-06-25T10:41:13.989Z,20.80
2018-06-25T10:43:42.424Z,20.30
2018-06-25T10:46:10.901Z,20.40
2018-06-25T10:48:39.440Z,20.50
2018-06-25T10:51:08.060Z,20.50
2018-06-25T10:53:36.549Z,20.00
2018-06-25T10:56:05.047Z,19.50
2018-06-25T10:58:33.482Z,19.10
2018-06-25T11:01:02.016Z,19.10
2018-06-25T11:03:30.461Z,19.10
2018-06-25T11:05:59.177Z,19.30
2018-06-25T11:08:27.668Z,19.30
2018-06-25T11:10:56.216Z,18.90
2018-06-25T11:13:24.899Z,19.00
2018-06-25T11:15:53.670Z,18.70
2018-06-25T11:18:22.151Z,18.80
2018-06-25T11:20:50.705Z,19.10
2018-06-25T11:25:47.402Z,19.60
2018-06-25T11:28:15.877Z,19.70
2018-06-25T11:30:44.442Z,19.70
2018-06-25T11:33:12.901Z,19.70
2018-06-25T11:35:41.444Z,19.80
2018-06-25T11:38:09.886Z,19.50
2018-06-25T11:40:38.382Z,19.90
2018-06-25T11:43:06.860Z,19.70
2018-06-25T11:45:35.373Z,19.60
2018-06-25T11:48:03.855Z,19.60
2018-06-25T11:50:32.517Z,19.30
2018-06-25T11:53:01.040Z,19.10
2018-06-25T11:55:30.702Z,19.00
2018-06-25T11:57:59.414Z,18.90
2018-06-25T12:00:27.896Z,19.00
2018-06-25T12:02:56.591Z,18.90
2018-06-25T12:05:25.149Z,19.20
2018-06-25T12:07:53.978Z,19.20
2018-06-25T12:10:22.606Z,19.20
2018-06-25T12:12:51.037Z,19.20
2018-06-25T12:15:19.604Z,19.10
2018-06-25T12:17:48.270Z,19.50
2018-06-25T12:20:16.911Z,19.40
2018-06-25T12:22:45.324Z,19.50
2018-06-25T12:25:15.213Z,19.50
2018-06-25T12:27:43.868Z,19.90
2018-06-25T12:30:12.273Z,19.70
2018-06-25T12:32:40.711Z,20.00
2018-06-25T12:35:09.329Z,19.80
2018-06-25T12:37:37.915Z,20.00
2018-06-25T12:40:06.397Z,20.10
2018-06-25T12:42:34.864Z,20.20
2018-06-25T12:45:03.531Z,20.00
2018-06-25T12:47:32.040Z,19.90
2018-06-25T12:50:00.791Z,20.00
2018-06-25T12:52:29.516Z,20.10
2018-06-25T12:54:58.070Z,20.00
2018-06-25T12:57:26.512Z,20.30
2018-06-25T12:59:55.085Z,20.20
2018-06-25T13:02:23.785Z,20.10
2018-06-25T13:04:52.279Z,20.30
2018-06-25T13:07:20.777Z,20.20
2018-06-25T13:09:49.310Z,20.00
2018-06-25T13:12:17.894Z,20.60
2018-06-25T13:14:46.456Z,20.40
2018-06-25T13:17:15.066Z,20.40
2018-06-25T13:19:43.793Z,20.80
2018-06-25T13:22:12.308Z,21.50
2018-06-25T13:24:40.832Z,21.10
2018-06-25T13:27:09.298Z,21.20
2018-06-25T13:29:37.814Z,20.90
2018-06-25T13:32:06.248Z,20.90
2018-06-25T13:34:36.213Z,21.10
2018-06-25T13:37:04.886Z,20.90
2018-06-25T13:39:33.879Z,21.00
2018-06-25T13:42:02.319Z,21.10
2018-06-25T13:44:30.893Z,21.10
2018-06-25T13:46:59.300Z,21.30
2018-06-25T13:49:29.044Z,21.20
2018-06-25T13:51:57.625Z,21.00
2018-06-25T13:54:27.360Z,21.10
2018-06-25T13:56:55.942Z,21.30
2018-06-25T13:59:24.605Z,21.60
2018-06-25T14:01:53.323Z,21.80
2018-06-25T14:04:21.813Z,22.10
2018-06-25T14:06:50.317Z,21.90
2018-06-25T14:09:18.792Z,21.40
2018-06-25T14:11:47.390Z,21.50
2018-06-25T14:14:15.915Z,21.10
2018-06-25T14:16:44.463Z,21.00
2018-06-25T14:19:12.845Z,21.10
2018-06-25T14:21:41.385Z,21.60
2018-06-25T14:24:15.442Z,22.00
2018-06-25T14:26:45.117Z,21.90
2018-06-25T14:29:18.896Z,21.60
2018-06-25T14:31:47.362Z,21.30
2018-06-25T14:34:21.212Z,21.40
2018-06-25T14:36:50.166Z,21.40
2018-06-25T14:39:18.802Z,21.20
2018-06-25T14:41:47.330Z,21.30
2018-06-25T14:44:15.779Z,21.50
2018-06-25T14:49:12.547Z,21.20
2018-06-25T14:51:41.047Z,21.00
2018-06-25T14:54:09.522Z,20.80
2018-06-25T14:56:38.004Z,20.70
2018-06-25T14:59:06.488Z,20.80
2018-06-25T15:01:35.012Z,20.70
2018-06-25T15:04:03.479Z,20.80
2018-06-25T15:06:31.987Z,20.70
2018-06-25T15:09:00.429Z,20.70
2018-06-25T15:11:29.006Z,20.90
2018-06-25T15:13:57.496Z,21.20
2018-06-25T15:16:25.954Z,21.50
2018-06-25T15:18:54.851Z,21.50
2018-06-25T15:21:23.373Z,21.60
2018-06-25T15:23:51.824Z,21.70
2018-06-25T15:26:20.306Z,21.70
2018-06-25T15:28:49.406Z,22.00
2018-06-25T15:31:17.906Z,22.10
2018-06-25T15:33:46.594Z,21.90
2018-06-25T15:36:15.201Z,21.80
2018-06-25T15:38:44.181Z,21.70
2018-06-25T15:41:12.749Z,21.70
2018-06-25T15:43:41.226Z,21.40
2018-06-25T15:46:09.865Z,21.20
2018-06-25T15:48:38.347Z,21.20
2018-06-25T15:51:06.824Z,21.00
2018-06-25T15:53:35.278Z,21.00
2018-06-25T15:56:03.825Z,21.20
2018-06-25T15:58:32.367Z,21.40
2018-06-25T16:01:00.885Z,21.30
2018-06-25T16:03:29.592Z,21.50
2018-06-25T16:05:58.069Z,21.40
2018-06-25T16:08:26.716Z,21.30
2018-06-25T16:10:55.265Z,21.30
2018-06-25T16:13:23.838Z,21.40
2018-06-25T16:15:52.301Z,21.50
2018-06-25T16:18:20.985Z,21.40
2018-06-25T16:20:49.448Z,21.40
2018-06-25T16:23:18.165Z,21.40
2018-06-25T16:25:46.612Z,21.30
2018-06-25T16:28:15.124Z,21.40
2018-06-25T16:30:43.663Z,21.40
2018-06-25T16:33:12.153Z,21.40
2018-06-25T16:35:40.670Z,21.40
2018-06-25T16:38:09.299Z,21.40
2018-06-25T16:40:37.834Z,21.70
2018-06-25T16:43:06.498Z,21.60
2018-06-25T16:48:03.240Z,21.70
2018-06-25T16:50:31.683Z,21.60
2018-06-25T16:53:00.317Z,21.70
2018-06-25T16:55:29.135Z,21.80
2018-06-25T16:57:57.604Z,21.90
2018-06-25T17:00:26.269Z,21.80
2018-06-25T17:02:54.768Z,21.80
2018-06-25T17:05:23.316Z,21.70
2018-06-25T17:07:51.784Z,21.90
2018-06-25T17:10:20.337Z,21.70
2018-06-25T17:12:49.460Z,21.90
2018-06-25T17:15:18.125Z,21.90
2018-06-25T17:17:46.592Z,21.60
2018-06-25T17:20:15.378Z,21.60
2018-06-25T17:22:43.849Z,21.60
2018-06-25T17:25:12.354Z,21.60
2018-06-25T17:27:40.821Z,21.70
2018-06-25T17:30:09.661Z,21.70
2018-06-25T17:32:38.259Z,22.00
2018-06-25T17:35:06.712Z,21.90
2018-06-25T17:37:35.206Z,21.70
2018-06-25T17:40:03.896Z,21.40
2018-06-25T17:42:32.445Z,21.50
2018-06-25T17:45:00.988Z,21.50
2018-06-25T17:47:30.997Z,21.60
2018-06-25T17:52:30.711Z,21.60
2018-06-25T17:54:59.870Z,21.50
2018-06-25T17:57:28.497Z,21.60
2018-06-25T17:59:56.950Z,21.70
2018-06-25T18:02:26.642Z,21.90
2018-06-25T18:04:55.187Z,21.90
2018-06-25T18:07:23.804Z,22.00
2018-06-25T18:09:52.407Z,21.90
2018-06-25T18:12:25.220Z,21.80
2018-06-25T18:15:04.869Z,21.90
2018-06-25T18:17:33.966Z,21.80
2018-06-25T18:20:03.516Z,21.80
2018-06-25T18:22:33.799Z,21.80
2018-06-25T18:25:02.433Z,21.90
2018-06-25T18:27:32.009Z,21.70
2018-06-25T18:30:01.022Z,21.70
2018-06-25T18:32:30.725Z,21.70
2018-06-25T18:34:59.320Z,21.60
2018-06-25T18:37:27.895Z,21.60
2018-06-25T18:39:56.493Z,21.50
2018-06-25T18:42:24.965Z,21.50
2018-06-25T18:44:53.607Z,21.50
2018-06-25T18:47:22.559Z,21.40
2018-06-25T18:49:51.182Z,21.40
2018-06-25T18:52:19.744Z,21.30
2018-06-25T18:54:48.202Z,21.20
2018-06-25T18:57:16.859Z,21.20
2018-06-25T18:59:45.121Z,21.10
2018-06-25T19:02:13.589Z,20.90
2018-06-25T19:04:42.152Z,20.70
2018-06-25T19:07:10.585Z,20.60
2018-06-25T19:09:39.392Z,20.50
2018-06-25T19:14:36.170Z,20.30
2018-06-25T19:17:04.713Z,20.10
2018-06-25T19:19:33.181Z,19.90
2018-06-25T19:22:01.649Z,19.80
2018-06-25T19:24:30.368Z,19.70
2018-06-25T19:26:59.070Z,19.60
2018-06-25T19:29:27.544Z,19.50
2018-06-25T19:31:56.040Z,19.40
2018-06-25T19:34:24.535Z,19.40
2018-06-25T19:36:53.034Z,19.30
2018-06-25T19:39:21.526Z,19.20
2018-06-25T19:41:50.005Z,19.10
2018-06-25T19:44:18.500Z,19.00
2018-06-25T19:46:47.088Z,19.00
2018-06-25T19:49:15.577Z,18.90
2018-06-25T19:51:44.212Z,18.80
2018-06-25T19:54:12.817Z,18.70
2018-06-25T19:56:41.325Z,18.70
2018-06-25T19:59:10.033Z,18.70
2018-06-25T20:01:38.549Z,18.80
2018-06-25T20:04:07.112Z,18.70
2018-06-25T20:06:35.631Z,18.70
2018-06-25T20:09:11.226Z,18.60
2018-06-25T20:11:39.967Z,18.50
2018-06-25T20:14:08.523Z,18.40
2018-06-25T20:16:37.160Z,18.40
2018-06-25T20:19:05.756Z,18.40
2018-06-25T20:21:34.572Z,18.20
2018-06-25T20:24:03.079Z,18.20
2018-06-25T20:26:31.669Z,18.10
2018-06-25T20:29:00.308Z,18.10
2018-06-25T20:31:28.740Z,18.10
2018-06-25T20:33:57.242Z,18.10
2018-06-25T20:36:25.835Z,18.10
2018-06-25T20:38:54.282Z,18.00
2018-06-25T20:41:22.814Z,17.90
2018-06-25T20:46:22.321Z,17.90
2018-06-25T20:48:50.814Z,17.90
2018-06-25T20:51:19.308Z,17.90
2018-06-25T20:53:47.760Z,17.80
2018-06-25T20:56:16.276Z,17.80
2018-06-25T20:58:44.804Z,17.80
2018-06-25T21:01:13.323Z,17.80
2018-06-25T21:03:41.797Z,17.80
2018-06-25T21:06:10.411Z,17.80
2018-06-25T21:08:41.144Z,17.80
2018-06-25T21:11:09.704Z,17.80
2018-06-25T21:13:38.350Z,17.80
2018-06-25T21:16:06.873Z,17.90
2018-06-25T21:18:35.503Z,18.00
2018-06-25T21:21:04.029Z,18.10
2018-06-25T21:23:32.526Z,18.00
2018-06-25T21:26:00.989Z,18.10
2018-06-25T21:28:29.514Z,18.10
2018-06-25T21:30:58.280Z,18.10
2018-06-25T21:33:26.922Z,18.00
2018-06-25T21:35:55.559Z,18.00
2018-06-25T21:38:24.059Z,17.90
2018-06-25T21:40:52.541Z,18.00
2018-06-25T21:43:21.070Z,17.90
2018-06-25T21:45:49.494Z,17.90
2018-06-25T21:48:17.961Z,17.90
2018-06-25T21:50:46.448Z,17.90
2018-06-25T21:53:14.885Z,17.90
2018-06-25T21:55:43.541Z,17.90
2018-06-25T21:58:12.339Z,17.90
2018-06-25T22:00:48.631Z,17.90
2018-06-25T22:03:17.476Z,17.90
2018-06-25T22:05:46.474Z,17.80
2018-06-25T22:08:14.998Z,17.80
2018-06-25T22:10:43.571Z,17.80
2018-06-25T22:13:12.359Z,17.70
2018-06-25T22:15:40.826Z,17.60
2018-06-25T22:18:09.658Z,17.70
2018-06-25T22:20:38.517Z,17.60
2018-06-25T22:23:07.030Z,17.60
2018-06-25T22:25:35.501Z,17.60
2018-06-25T22:28:04.019Z,17.60
2018-06-25T22:30:32.487Z,17.60
2018-06-25T22:33:00.958Z,17.60
2018-06-25T22:35:29.440Z,17.60
2018-06-25T22:37:57.880Z,17.50
2018-06-25T22:40:26.344Z,17.50
2018-06-25T22:42:54.937Z,17.40
2018-06-25T22:45:23.518Z,17.40
2018-06-25T22:47:52.144Z,17.30
2018-06-25T22:50:20.576Z,17.30
2018-06-25T22:52:49.092Z,17.20
2018-06-25T22:55:17.576Z,17.20
2018-06-25T22:57:46.048Z,17.10
2018-06-25T23:00:14.495Z,17.00
2018-06-25T23:02:43.169Z,17.00
2018-06-25T23:05:11.709Z,17.00
2018-06-25T23:07:40.188Z,16.90
2018-06-25T23:10:08.617Z,16.90
2018-06-25T23:12:37.106Z,16.90
2018-06-25T23:15:05.653Z,16.90
2018-06-25T23:17:34.148Z,16.90
2018-06-25T23:22:30.769Z,16.80
2018-06-25T23:24:59.279Z,16.80
2018-06-25T23:29:55.881Z,16.80
2018-06-25T23:32:24.326Z,16.70
2018-06-25T23:34:52.776Z,16.70
2018-06-25T23:37:21.177Z,16.60
2018-06-25T23:39:49.625Z,16.60
2018-06-25T23:42:18.028Z,16.50
2018-06-25T23:44:46.484Z,16.40
2018-06-25T23:47:14.932Z,16.30
2018-06-25T23:49:43.478Z,16.30
2018-06-25T23:52:12.024Z,16.30
2018-06-25T23:54:40.516Z,16.20
2018-06-25T23:57:09.052Z,16.20
2018-06-25T23:59:37.465Z,16.20
